Latest Coastal Weather Observations for Horn Island

IDQ60701

Issued at 8:01 pm EST Sunday 26 February 2017 (issued every 10 minutes, with the page automatically refreshed every 10 minutes)

About coastal observations | Map of coastal stations | Coastal observations for QLD | Marine services | Other Formats
Station Details ID: 027058 Name: HORN ISLAND Lat: -10.58 Lon: 142.29 Height: 4.0 m
Data from the previous 72 hours. | See also: Recent months at Horn Island
Date/Time
EST
Temp
°C
Wind Pressure Rain since
9am
mm
Weather Cloud Vis
km
Sea
Height
m
Swell
Dir  Spd
kts
Gust
kts
hPa Trend Height
m
Period
s
Dir
26/08:00pm 26.3 SE 3 4 1007.8 - 5.6 - - 10 - - - -
26/07:30pm 26.6 NNE 1 3 1007.4 - 5.6 - - 10 - - - -
26/07:00pm 26.7 E 3 4 1006.6 - 5.6 - - 10 - - - -
26/06:30pm 27.0 ESE 5 6 1006.2 - 5.6 - - 10 - - - -
26/06:00pm 27.4 ESE 4 5 1005.9 - 5.6 - - 10 - - - -
26/05:30pm 27.4 E 5 6 1005.7 - 5.6 - - 10 - - - -
26/05:00pm 27.9 ENE 5 7 1005.8 - 5.6 - - 10 - - - -
26/04:30pm 27.9 NE 3 5 1006.0 - 5.6 - - 10 - - - -
26/04:00pm 27.9 N 3 4 1006.3 - 5.6 - - 10 - - - -
26/03:30pm 27.9 N 4 6 1006.4 - 5.6 - - 10 - - - -
26/03:00pm 28.1 NNW 4 6 1006.5 - 5.6 - - 10 - - - -
26/02:30pm 27.4 WNW 4 6 1006.6 - 5.6 - Partly cloudy 10 - - - -
26/02:00pm 26.9 N 3 4 1006.9 - 5.6 - - 10 - - - -
26/01:30pm 26.4 N 4 6 1007.4 - 5.6 - Partly cloudy 10 - - - -
26/01:00pm 25.9 N 5 6 1007.8 - 5.6 - Partly cloudy 10 - - - -
26/12:30pm 26.1 N 6 9 1008.3 - 5.4 - Partly cloudy 10 - - - -
26/12:00pm 25.9 NNE 5 7 1008.8 - 5.0 - Cloudy 10 - - - -
26/11:30am 25.6 S 1 5 1009.2 - 4.0 - Partly cloudy 10 - - - -
26/11:00am 25.3 SSW 4 5 1009.8 - 3.6 - Partly cloudy 10 - - - -
26/10:52am 25.4 S 4 5 1009.9 - 3.6 - Partly cloudy 10 - - - -
26/10:30am 25.1 WSW 3 4 1010.2 - 3.6 - Partly cloudy 10 - - - -
26/10:22am 25.1 W 4 5 1010.2 - 3.6 - Partly cloudy 10 - - - -
26/10:00am 24.9 CALM 0 0 1010.0 - 3.4 - Partly cloudy 10 - - - -
26/09:57am 25.0 CALM 0 0 1009.9 - 3.4 - Partly cloudy 10 - - - -
26/09:48am 25.0 W 2 4 1009.9 - 3.4 - Partly cloudy 10 - - - -
26/09:30am 24.8 WSW 4 5 1009.9 - 3.0 - Partly cloudy 4 - - - -
26/09:00am 24.6 SE 4 5 1009.9 - 49.0 - Cloudy 2 - - - -
26/08:55am 24.6 SE 4 5 1010.0 - 48.0 - Partly cloudy 2 - - - -
26/08:44am 24.9 SE 4 5 1010.0 - 45.6 - Partly cloudy 2 - - - -
26/08:30am 25.0 SE 4 5 1009.7 - 43.2 - Partly cloudy 3 - - - -
26/08:00am 24.9 NE 5 7 1009.2 - 38.8 - Partly cloudy 5 - - - -
26/07:30am 25.0 SSE 4 10 1008.7 - 35.4 - Partly cloudy 4 - - - -
26/07:00am 24.8 S 5 6 1008.0 - 31.0 - Partly cloudy 4 - - - -
26/06:59am 24.8 SSE 5 6 1008.0 - 31.0 - Partly cloudy 3 - - - -
26/06:49am 25.1 SE 3 4 1008.0 - 29.8 - Partly cloudy 2 - - - -
26/06:30am 25.1 E 4 5 1007.8 - 26.6 - Partly cloudy 5 - - - -
26/06:11am 25.7 E 4 6 1007.6 - 24.0 - Partly cloudy 5 - - - -
26/06:00am 25.6 ENE 5 7 1007.4 - 23.0 - Cloudy 7 - - - -
26/05:31am 25.4 NE 6 8 1007.3 - 21.6 - Partly cloudy 10 - - - -
26/05:30am 25.3 NE 6 8 1007.2 - 21.6 - Partly cloudy 10 - - - -
26/05:00am 25.2 N 4 4 1007.2 - 21.4 - Partly cloudy 10 - - - -
26/04:41am 25.2 SE 2 4 1006.9 - 21.2 - Partly cloudy 10 - - - -
26/04:32am 25.2 ESE 3 4 1007.0 - 21.2 - Partly cloudy 6 - - - -
26/04:30am 25.2 E 4 5 1007.0 - 21.0 - Partly cloudy 5 - - - -
26/04:14am 25.2 N 4 6 1007.1 - 19.0 - Partly cloudy 6 - - - -
26/04:00am 25.2 N 6 8 1006.8 - 18.2 - Partly cloudy 3 - - - -
26/03:30am 24.9 NNE 8 11 1007.0 - 8.6 - Partly cloudy 2 - - - -
26/03:27am 24.8 NNE 9 12 1006.9 - 8.2 - Partly cloudy 2 - - - -
26/03:11am 26.1 N 11 17 1006.8 - 1.6 - Partly cloudy 5 - - - -
26/03:08am 26.1 N 12 17 1006.8 - 0.2 - Partly cloudy 10 - - - -
26/03:00am 26.8 N 1 5 1006.9 - 0.0 - Cloudy 10 - - - -
26/02:30am 26.8 SE 1 4 1006.9 - 0.0 - Partly cloudy 10 - - - -
26/02:00am 26.8 S 2 5 1007.0 - 0.0 - - 10 - - - -
26/01:30am 26.9 S 3 4 1007.5 - 0.0 - Partly cloudy 10 - - - -
26/01:00am 27.2 SSE 1 3 1007.8 - 0.0 - Partly cloudy 10 - - - -
26/12:30am 27.2 SE 3 3 1008.3 - 0.0 - Partly cloudy 10 - - - -
26/12:00am 27.4 SE 3 4 1008.6 - 0.0 - Mostly clear 10 - - - -
 
Date/Time
EST
Temp
°C
Wind Pressure Rain since
9am
mm
Weather Cloud Vis
km
Sea
Height
m
Swell
Dir  Spd
kts
Gust
kts
hPa Trend Height
m
Period
s
Dir
25/11:30pm 27.5 SE 4 5 1009.2 - 0.0 - - 10 - - - -
25/11:00pm 27.4 ESE 3 5 1009.1 - 0.0 - - 10 - - - -
25/10:30pm 27.6 ESE 3 4 1009.1 - 0.0 - - 10 - - - -
25/10:00pm 27.7 SE 4 5 1009.1 - 0.0 - - 10 - - - -
25/09:30pm 27.7 E 2 4 1009.0 - 0.0 - - 10 - - - -
25/09:00pm 27.9 SE 3 4 1008.8 - 0.0 - - 10 - - - -
25/08:30pm 28.0 ESE 3 3 1008.5 - 0.0 - - 10 - - - -
25/08:00pm 28.0 SE 3 4 1008.1 - 0.0 - - 10 - - - -
25/07:30pm 28.3 S 3 4 1007.9 - 0.0 - - 10 - - - -
25/07:00pm 28.7 NE 2 3 1007.7 - 0.0 - - 10 - - - -
25/06:30pm 28.9 NE 3 3 1007.3 - 0.0 - - 10 - - - -
25/06:00pm 29.0 NNE 4 5 1006.8 - 0.0 - - 10 - - - -
25/05:30pm 29.2 N 4 6 1006.7 - 0.0 - - 10 - - - -
25/05:00pm 29.3 ENE 5 7 1006.2 - 0.0 - - 10 - - - -
25/04:30pm 29.9 NE 6 9 1006.2 - 0.0 - - 10 - - - -
25/04:00pm 30.1 ENE 7 11 1006.4 - 0.0 - - 10 - - - -
25/03:30pm 30.6 ENE 8 10 1006.8 - 0.0 - - 10 - - - -
25/03:00pm 30.4 E 10 12 1007.1 - 0.0 - Mostly clear 10 - - - -
25/02:30pm 29.7 E 10 14 1007.3 - 0.0 - - 10 - - - -
25/02:00pm 30.4 E 12 19 1007.7 - 0.0 - Partly cloudy 10 - - - -
25/01:30pm 30.8 ENE 9 13 1008.1 - 0.0 - - 10 - - - -
25/01:00pm 30.8 E 10 13 1008.5 - 0.0 - - 10 - - - -
25/12:30pm 30.7 ENE 9 12 1009.1 - 0.0 - - 10 - - - -
25/12:00pm 30.9 ENE 10 13 1009.6 - 0.0 - - 10 - - - -
25/11:30am 30.8 E 10 12 1009.9 - 0.0 - Partly cloudy 10 - - - -
25/11:00am 30.7 E 10 15 1010.1 - 0.0 - Partly cloudy 10 - - - -
25/10:30am 30.8 ESE 8 11 1010.1 - 0.0 - Partly cloudy 10 - - - -
25/10:00am 30.7 ESE 9 12 1010.1 - 0.0 - - 10 - - - -
25/09:30am 30.3 E 9 13 1010.3 - 0.0 - - 10 - - - -
25/09:00am 29.7 SE 9 11 1009.9 - 0.0 - - 10 - - - -
25/08:30am 29.0 SSE 6 7 1009.8 - 0.0 - - 10 - - - -
25/08:00am 27.8 S 6 9 1009.9 - 0.0 - - 10 - - - -
25/07:30am 27.3 S 7 8 1009.7 - 0.0 - - 10 - - - -
25/07:00am 26.7 S 5 6 1009.4 - 0.0 - - 10 - - - -
25/06:30am 26.4 S 5 7 1008.9 - 0.0 - - 10 - - - -
25/06:00am 26.4 S 5 7 1008.5 - 0.0 - - 10 - - - -
25/05:30am 26.5 S 6 8 1008.2 - 0.0 - Partly cloudy 10 - - - -
25/05:00am 26.2 S 5 6 1007.9 - 0.0 - - 10 - - - -
25/04:30am 26.0 SSE 4 5 1007.5 - 0.0 - - 10 - - - -
25/04:00am 25.8 CALM 0 0 1008.1 - 0.0 - - 10 - - - -
25/03:30am 25.9 SSW 4 5 1007.9 - 0.0 - - 10 - - - -
25/03:00am 26.0 SW 3 4 1008.5 - 0.0 - - 10 - - - -
25/02:30am 26.1 SSW 4 5 1008.6 - 0.0 - - 10 - - - -
25/02:00am 26.1 SSW 4 5 1008.6 - 0.0 - - 10 - - - -
25/01:30am 26.3 SSW 4 5 1008.7 - 0.0 - - 10 - - - -
25/01:00am 26.4 SSW 5 6 1009.1 - 0.0 - Partly cloudy 10 - - - -
25/12:30am 26.6 WSW 3 4 1009.3 - 0.0 - Partly cloudy 10 - - - -
25/12:00am 26.7 WSW 1 4 1009.7 - 0.0 - Cloudy 10 - - - -
 
Date/Time
EST
Temp
°C
Wind Pressure Rain since
9am
mm
Weather Cloud Vis
km
Sea
Height
m
Swell
Dir  Spd
kts
Gust
kts
hPa Trend Height
m
Period
s
Dir
24/11:30pm 26.6 SW 3 4 1010.1 - 0.0 - - 10 - - - -
24/11:00pm 26.7 S 3 4 1010.3 - 0.0 - - 10 - - - -
24/10:30pm 26.8 SW 1 3 1010.4 - 0.0 - Partly cloudy 10 - - - -
24/10:00pm 27.1 SSW 5 5 1009.9 - 0.0 - - 10 - - - -
24/09:51pm 27.2 SSW 5 6 1010.0 - 0.0 - - 10 - - - -
24/09:35pm 27.3 S 4 6 1009.9 - 0.0 - - 5 - - - -
24/09:30pm 27.3 S 5 6 1009.9 - 0.0 - - 10 - - - -
24/09:00pm 27.7 S 5 6 1009.8 - 0.0 - Partly cloudy 10 - - - -
24/08:30pm 27.8 SE 3 4 1009.4 - 0.0 - Partly cloudy 10 - - - -
24/08:00pm 28.0 CALM 0 3 1009.5 - 0.0 - - 10 - - - -
24/07:30pm 28.1 S 4 5 1009.1 - 0.0 - - 10 - - - -
24/07:00pm 28.5 SSE 4 6 1008.5 - 0.0 - Partly cloudy 10 - - - -
24/06:30pm 28.8 SE 6 7 1008.2 - 0.0 - - 10 - - - -
24/06:00pm 29.0 E 8 11 1007.4 - 0.0 - - 10 - - - -
24/05:30pm 29.1 E 8 11 1007.3 - 0.0 - - 10 - - - -
24/05:00pm 29.3 E 8 11 1006.9 - 0.0 - - 10 - - - -
24/04:30pm 30.7 E 11 15 1006.7 - 0.0 - - 10 - - - -
24/04:00pm 31.3 E 11 14 1006.9 - 0.0 - - 10 - - - -
24/03:30pm 31.1 E 11 15 1007.7 - 0.0 - - 10 - - - -
24/03:00pm 30.8 E 11 16 1007.6 - 0.0 - - 10 - - - -
24/02:30pm 31.4 E 11 16 1007.9 - 0.0 - - 10 - - - -
24/02:00pm 31.0 E 12 17 1008.3 - 0.0 - - 10 - - - -
24/01:30pm 30.8 E 12 16 1008.8 - 0.0 - - 10 - - - -
24/01:00pm 31.0 E 11 16 1009.2 - 0.0 - - 10 - - - -
24/12:30pm 31.1 E 11 15 1009.8 - 0.0 - - 10 - - - -
24/12:00pm 31.1 E 11 15 1010.4 - 0.0 - - 10 - - - -
24/11:30am 30.9 E 10 14 1010.9 - 0.0 - Partly cloudy 10 - - - -
24/11:00am 31.4 E 9 13 1011.0 - 0.0 - Partly cloudy 10 - - - -
24/10:30am 30.5 ESE 10 14 1011.1 - 0.0 - Partly cloudy 10 - - - -
24/10:00am 30.5 ESE 10 14 1011.3 - 0.0 - Partly cloudy 10 - - - -
24/09:30am 29.9 SE 9 13 1011.5 - 0.0 - Partly cloudy 10 - - - -
24/09:00am 30.0 SE 8 12 1011.5 - 0.0 - - 10 - - - -
24/08:30am 29.6 SE 9 12 1011.6 - 0.0 - - 10 - - - -
24/08:00am 28.9 SE 6 9 1011.3 - 0.0 - - 10 - - - -
24/07:30am 27.7 SE 5 7 1011.0 - 0.0 - - 10 - - - -
24/07:00am 26.3 CALM 0 0 1010.9 - 0.0 - - 10 - - - -
24/06:30am 26.4 CALM 0 0 1010.8 - 0.0 - - 10 - - - -
24/06:00am 26.7 SSE 2 3 1010.5 - 0.0 - - 10 - - - -
24/05:30am 26.9 SE 4 5 1010.0 - 0.0 - - 10 - - - -
24/05:00am 27.2 SE 5 6 1009.6 - 0.0 - - 10 - - - -
24/04:30am 27.3 SSE 5 7 1009.6 - 0.0 - - 10 - - - -
24/04:00am 27.3 SSE 4 5 1009.5 - 0.0 - Partly cloudy 10 - - - -
24/03:30am 27.4 SE 4 5 1009.4 - 0.0 - Partly cloudy 10 - - - -
24/03:00am 27.4 SE 4 5 1009.6 - 0.0 - Cloudy 10 - - - -
24/02:30am 27.6 SE 4 6 1009.8 - 0.0 - Partly cloudy 10 - - - -
24/02:00am 27.7 SE 4 6 1010.0 - 0.0 - Partly cloudy 10 - - - -
24/01:30am 28.1 ESE 8 11 1010.3 - 0.0 - - 10 - - - -
24/01:00am 28.3 ESE 9 14 1010.7 - 0.0 - - 10 - - - -
24/12:30am 28.2 ESE 9 11 1011.1 - 0.0 - - 10 - - - -
24/12:00am 28.3 ESE 9 11 1011.3 - 0.0 - - 10 - - - -
 
Date/Time
EST
Temp
°C
Wind Pressure Rain since
9am
mm
Weather Cloud Vis
km
Sea
Height
m
Swell
Dir  Spd
kts
Gust
kts
hPa Trend Height
m
Period
s
Dir
23/11:30pm 28.3 ESE 9 14 1011.5 - 0.0 - - 10 - - - -
23/11:00pm 28.4 ESE 8 11 1011.4 - 0.0 - Partly cloudy 10 - - - -
23/10:30pm 28.5 E 9 13 1011.4 - 0.0 - Partly cloudy 10 - - - -
23/10:00pm 28.5 ESE 10 13 1011.2 - 0.0 - Partly cloudy 10 - - - -
23/09:30pm 28.3 E 9 13 1010.9 - 0.0 - - 10 - - - -
23/09:00pm 28.3 E 9 11 1010.6 - 0.0 - - 10 - - - -
23/08:30pm 28.3 E 9 12 1010.2 - 0.0 - - 10 - - - -

Other Formats:

Comma delimited format used in spreadsheet applications
http://www.bom.gov.au/fwo/IDQ60701/IDQ60701.94174.axf

JavaScript Object Notation format (JSON) in row-major order
http://www.bom.gov.au/fwo/IDQ60701/IDQ60701.94174.json